首页
METAR-TAF:

METAR-TAF

机场 :

沙赫阿馬納國際機場

吉大港, 孟加拉国

纬度: 22-16N, 经度: 091-49E, 海拔: 4米

当前天气观测

该预报发布于1小时和5分钟前的13:00 UTC
风速5节,风向南转南东
温度 30°C
湿度 89%
气压 1003 hPa
能見度: 6000
少量云层高于1700英尺
散云层高于12000英尺
霾,

METAR: VGEG 171300Z 15005KT 6000 HZ FEW017 SCT120 30/28 Q1003 NOSIG

时间: 20:05 (14:05 UTC)

预报

该预报发布于3小时和5分钟前的11:00 UTC
预报有效从17日的 12点(UTC)到 18日的 18点(UTC)
风速10节,风向南转西南
能見度: 5000
散云层高于1800英尺
散云层高于10000英尺
短暂存在
从 17日的 19点(UTC)到 17日的 22点(UTC)
风速10节,风向,有时为20节阵风
能見度: 2000
多云层高于800英尺
少量云层高于2500英尺, 积雨云.
阴天层高于8000英尺
成为
从 18日的 00点(UTC)到 18日的 02点(UTC)
风速8节,风向南转南东
能見度: 4000
散云层高于1500英尺
多云层高于10000英尺
成为
从 18日的 12点(UTC)到 18日的 14点(UTC)
风速10节,风向南转西南
能見度: 4000
散云层高于1500英尺
多云层高于10000英尺
霾,

TAF: VGEG 171100Z 1712/1818 21010KT 5000 HZ SCT018 SCT100 TEMPO 1719/1722 17010G20KT 2000 RA/TSRA BKN008 FEW025CB OVC080 BECMG 1800/1802 16008KT 4000 HZ SCT015 BKN100 BECMG 1812/1814 21010KT 4000 HZ SCT015 BKN100

超过4000个机场的气象观测和天气预报(METAR&TAF报告)。

可查询的气象台以黄色和红色小点在地图上表示。

将鼠标移到小点上方,可查看气象台名称。

然后点击查看天气观测和预报。

如需切换地图:点击带黑十字的绿色按钮放大地图;点击带横线的绿色按钮缩小地图;或者点击绿色箭头查看邻近地区的地图。


METAR-TAF: